createdAt,value
2022-12-18T00:00:57.096Z,20.55
2022-12-18T00:02:01.406Z,20.56
2022-12-18T00:03:06.071Z,20.57
2022-12-18T00:04:11.273Z,20.53
2022-12-18T00:05:15.936Z,20.52
2022-12-18T00:06:20.139Z,20.52
2022-12-18T00:07:24.393Z,20.56
2022-12-18T00:08:28.685Z,20.52
2022-12-18T00:09:38.397Z,20.54
2022-12-18T00:10:44.209Z,20.51
2022-12-18T00:11:48.466Z,20.51
2022-12-18T00:12:52.725Z,20.48
2022-12-18T00:13:56.980Z,20.42
2022-12-18T00:15:01.200Z,20.44
2022-12-18T00:16:05.508Z,20.47
2022-12-18T00:17:10.130Z,20.45
2022-12-18T00:18:17.524Z,20.41
2022-12-18T00:19:24.680Z,20.45
2022-12-18T00:20:28.970Z,20.44
2022-12-18T00:21:33.250Z,20.47
2022-12-18T00:22:37.483Z,20.5
2022-12-18T00:23:42.386Z,20.48
2022-12-18T00:24:47.084Z,20.48
2022-12-18T00:25:51.340Z,20.45
2022-12-18T00:26:55.577Z,20.45
2022-12-18T00:27:59.792Z,20.42
2022-12-18T00:29:04.014Z,20.46
2022-12-18T00:30:10.032Z,20.47
2022-12-18T00:31:15.027Z,20.45
2022-12-18T00:32:19.546Z,20.46
2022-12-18T00:33:23.801Z,20.47
2022-12-18T00:34:28.049Z,20.43
2022-12-18T00:35:32.255Z,20.45
2022-12-18T00:36:36.513Z,20.44
2022-12-18T00:37:40.758Z,20.43
2022-12-18T00:38:45.013Z,20.44
2022-12-18T00:39:49.284Z,20.44
2022-12-18T00:40:53.910Z,20.45
2022-12-18T00:41:58.207Z,20.44
2022-12-18T00:43:02.432Z,20.37
2022-12-18T00:44:06.664Z,20.33
2022-12-18T00:45:13.073Z,20.36
2022-12-18T00:46:17.594Z,20.36
2022-12-18T00:47:22.968Z,20.35
2022-12-18T00:48:27.187Z,20.34
2022-12-18T00:49:31.434Z,20.33
2022-12-18T00:50:35.681Z,20.34
2022-12-18T00:51:39.935Z,20.34
2022-12-18T00:52:44.461Z,20.33
2022-12-18T00:53:48.667Z,20.32
2022-12-18T00:54:52.890Z,20.33
2022-12-18T00:55:57.132Z,20.34
2022-12-18T00:57:01.397Z,20.32
2022-12-18T00:58:05.629Z,20.33
2022-12-18T00:59:09.882Z,20.36
2022-12-18T01:00:14.120Z,20.31
2022-12-18T01:01:18.477Z,20.31
2022-12-18T01:02:23.394Z,20.29
2022-12-18T01:03:28.094Z,20.24
2022-12-18T01:04:32.322Z,20.22
2022-12-18T01:05:36.573Z,20.22
2022-12-18T01:06:40.807Z,20.23
2022-12-18T01:07:45.048Z,20.21
2022-12-18T01:08:49.278Z,20.23
2022-12-18T01:09:53.479Z,20.23
2022-12-18T01:10:57.692Z,20.25
2022-12-18T01:12:01.927Z,20.19
2022-12-18T01:13:06.148Z,20.18
2022-12-18T01:14:10.408Z,20.22
2022-12-18T01:15:14.624Z,20.23
2022-12-18T01:16:18.978Z,20.24
2022-12-18T01:17:23.299Z,20.25
2022-12-18T01:18:27.557Z,20.19
2022-12-18T01:19:31.785Z,20.21
2022-12-18T01:20:36.011Z,20.21
2022-12-18T01:21:40.226Z,20.22
2022-12-18T01:22:44.457Z,20.18
2022-12-18T01:23:48.731Z,20.21
2022-12-18T01:24:52.974Z,20.16
2022-12-18T01:25:57.483Z,20.19
2022-12-18T01:27:01.710Z,20.19
2022-12-18T01:28:05.958Z,20.14
2022-12-18T01:29:10.192Z,20.12
2022-12-18T01:30:14.401Z,20.13
2022-12-18T01:31:18.700Z,20.12
2022-12-18T01:32:23.192Z,20.14
2022-12-18T01:33:29.909Z,20.14
2022-12-18T01:34:34.133Z,20.15
2022-12-18T01:35:38.918Z,20.16
2022-12-18T01:36:43.162Z,20.12
2022-12-18T01:37:47.390Z,20.13
2022-12-18T01:38:51.637Z,20.16
2022-12-18T01:39:55.879Z,20.19
2022-12-18T01:41:00.118Z,20.15
2022-12-18T01:42:04.352Z,20.15
2022-12-18T01:43:08.620Z,20.12
2022-12-18T01:44:12.880Z,20.12
2022-12-18T01:45:17.112Z,20.13
2022-12-18T01:46:22.806Z,20.1
2022-12-18T01:47:27.023Z,20.1
2022-12-18T01:48:31.298Z,20.09
2022-12-18T01:49:35.557Z,20.08
2022-12-18T01:50:39.773Z,20.09
2022-12-18T01:51:44.001Z,20.11
2022-12-18T01:52:48.319Z,20.12
2022-12-18T01:53:52.535Z,20.1
2022-12-18T01:54:56.758Z,20.11
2022-12-18T01:56:01.011Z,20.12
2022-12-18T01:57:05.250Z,20.1
2022-12-18T01:58:09.541Z,20.07
2022-12-18T01:59:13.760Z,20.06
2022-12-18T02:00:17.970Z,20.04
2022-12-18T02:01:22.377Z,20.07
2022-12-18T02:02:27.058Z,20.13
2022-12-18T02:03:31.602Z,20.11
2022-12-18T02:04:35.824Z,20.06
2022-12-18T02:05:40.054Z,20.03
2022-12-18T02:06:44.385Z,20.01
2022-12-18T02:07:48.990Z,20.01
2022-12-18T02:08:53.213Z,20.01
2022-12-18T02:09:57.467Z,20.02
2022-12-18T02:11:01.695Z,19.99
2022-12-18T02:12:05.945Z,20.03
2022-12-18T02:13:11.196Z,20.02
2022-12-18T02:14:15.396Z,20.04
2022-12-18T02:15:19.633Z,20.06
2022-12-18T02:16:23.899Z,20.05
2022-12-18T02:17:28.965Z,20.07
2022-12-18T02:18:33.177Z,20.07
2022-12-18T02:19:37.421Z,20.05
2022-12-18T02:20:41.636Z,20.05
2022-12-18T02:21:45.903Z,20.05
2022-12-18T02:22:50.134Z,20.08
2022-12-18T02:23:54.338Z,20.05
2022-12-18T02:24:58.555Z,20.07
2022-12-18T02:26:02.791Z,20.08
2022-12-18T02:27:07.051Z,20.11
2022-12-18T02:28:11.249Z,20.05
2022-12-18T02:29:15.497Z,20.06
2022-12-18T02:30:19.719Z,20.05
2022-12-18T02:31:23.919Z,20.07
2022-12-18T02:32:28.148Z,20.01
2022-12-18T02:33:32.353Z,20.03
2022-12-18T02:34:36.583Z,20.03
2022-12-18T02:35:40.829Z,20.03
2022-12-18T02:36:45.050Z,20.07
2022-12-18T02:37:49.268Z,20.08
2022-12-18T02:38:53.533Z,20.06
2022-12-18T02:39:57.788Z,20.05
2022-12-18T02:41:02.034Z,20.04
2022-12-18T02:42:06.260Z,20.05
2022-12-18T02:43:10.517Z,20.06
2022-12-18T02:44:14.762Z,20.05
2022-12-18T02:45:18.964Z,20.01
2022-12-18T02:46:23.180Z,20.01
2022-12-18T02:47:27.946Z,20.01
2022-12-18T02:48:32.148Z,20
2022-12-18T02:49:36.375Z,20
2022-12-18T02:50:40.610Z,20.02
2022-12-18T02:51:44.851Z,20.03
2022-12-18T02:52:49.105Z,19.97
2022-12-18T02:53:53.328Z,19.98
2022-12-18T02:54:57.571Z,19.96
2022-12-18T02:56:02.072Z,19.98
2022-12-18T02:57:06.328Z,20
2022-12-18T02:58:11.364Z,20.01
2022-12-18T02:59:15.583Z,20
2022-12-18T03:00:19.808Z,20
2022-12-18T03:01:24.170Z,19.98
2022-12-18T03:02:28.956Z,19.97
2022-12-18T03:03:33.831Z,19.97
2022-12-18T03:04:38.479Z,20
2022-12-18T03:05:43.740Z,20.01
2022-12-18T03:06:48.589Z,20.04
2022-12-18T03:07:52.872Z,19.99
2022-12-18T03:08:57.084Z,20.01
2022-12-18T03:10:01.311Z,20.03
2022-12-18T03:11:05.552Z,19.99
2022-12-18T03:12:09.786Z,20
2022-12-18T03:13:14.008Z,19.97
2022-12-18T03:14:19.310Z,19.96
2022-12-18T03:15:23.646Z,19.98
2022-12-18T03:16:28.180Z,19.92
2022-12-18T03:17:32.555Z,19.97
2022-12-18T03:18:36.808Z,19.92
2022-12-18T03:19:41.039Z,19.93
2022-12-18T03:20:45.287Z,19.94
2022-12-18T03:21:49.514Z,19.97
2022-12-18T03:22:53.733Z,19.92
2022-12-18T03:23:58.377Z,19.96
2022-12-18T03:25:02.606Z,19.97
2022-12-18T03:26:07.668Z,19.98
2022-12-18T03:27:12.008Z,19.98
2022-12-18T03:28:16.245Z,19.94
2022-12-18T03:29:20.472Z,19.95
2022-12-18T03:30:24.684Z,19.95
2022-12-18T03:31:28.971Z,19.93
2022-12-18T03:32:33.300Z,19.89
2022-12-18T03:33:37.884Z,19.88
2022-12-18T03:34:43.832Z,19.88
2022-12-18T03:35:48.137Z,19.89
2022-12-18T03:36:52.386Z,19.88
2022-12-18T03:37:56.588Z,19.86
2022-12-18T03:39:00.825Z,19.91
2022-12-18T03:40:05.020Z,19.9
2022-12-18T03:41:09.245Z,19.89
2022-12-18T03:42:13.477Z,19.84
2022-12-18T03:43:20.016Z,19.86
2022-12-18T03:44:24.278Z,19.83
2022-12-18T03:45:28.486Z,19.81
2022-12-18T03:46:32.775Z,19.81
2022-12-18T03:47:37.144Z,19.82
2022-12-18T03:48:41.782Z,19.82
2022-12-18T03:49:46.098Z,19.85
2022-12-18T03:50:50.331Z,19.85
2022-12-18T03:51:54.547Z,19.82
2022-12-18T03:52:58.789Z,19.87
2022-12-18T03:54:03.014Z,19.88
2022-12-18T03:55:07.466Z,19.88
2022-12-18T03:56:11.690Z,19.85
2022-12-18T03:57:16.599Z,19.88
2022-12-18T03:58:20.867Z,19.86
2022-12-18T03:59:25.101Z,19.83
2022-12-18T04:00:29.291Z,19.86
2022-12-18T04:01:33.577Z,19.83
2022-12-18T04:02:38.248Z,19.82
2022-12-18T04:03:43.365Z,19.79
2022-12-18T04:04:48.694Z,19.81
2022-12-18T04:05:52.921Z,19.8
2022-12-18T04:06:57.140Z,19.84
2022-12-18T04:08:01.360Z,19.85
2022-12-18T04:09:05.602Z,19.85
2022-12-18T04:10:09.823Z,19.83
2022-12-18T04:11:14.036Z,19.85
2022-12-18T04:12:18.289Z,19.85
2022-12-18T04:13:22.528Z,19.85
2022-12-18T04:14:26.873Z,19.85
2022-12-18T04:15:31.173Z,19.82
2022-12-18T04:16:35.482Z,19.81
2022-12-18T04:17:39.697Z,19.8
2022-12-18T04:18:43.940Z,19.79
2022-12-18T04:19:48.547Z,19.81
2022-12-18T04:20:52.805Z,19.85
2022-12-18T04:21:58.088Z,19.85
2022-12-18T04:23:02.340Z,19.81
2022-12-18T04:24:06.786Z,19.79
2022-12-18T04:25:11.011Z,19.8
2022-12-18T04:26:15.260Z,19.79
2022-12-18T04:27:19.489Z,19.78
2022-12-18T04:28:24.151Z,19.82
2022-12-18T04:29:28.374Z,19.78
2022-12-18T04:30:33.647Z,19.77
2022-12-18T04:31:37.905Z,19.75
2022-12-18T04:32:42.140Z,19.76
2022-12-18T04:33:54.797Z,19.76
2022-12-18T04:34:59.045Z,19.78
2022-12-18T04:36:03.277Z,19.81
2022-12-18T04:37:07.558Z,19.83
2022-12-18T04:38:11.815Z,19.83
2022-12-18T04:39:16.059Z,19.83
2022-12-18T04:40:20.276Z,19.82
2022-12-18T04:41:24.506Z,19.84
2022-12-18T04:42:28.791Z,19.8
2022-12-18T04:43:33.026Z,19.79
2022-12-18T04:44:37.242Z,19.78
2022-12-18T04:45:41.467Z,19.76
2022-12-18T04:46:45.780Z,19.77
2022-12-18T04:47:50.292Z,19.8
2022-12-18T04:48:54.514Z,19.78
2022-12-18T04:49:58.754Z,19.75
2022-12-18T04:51:02.971Z,19.76
2022-12-18T04:52:07.239Z,19.75
2022-12-18T04:53:11.511Z,19.78
2022-12-18T04:54:15.728Z,19.77
2022-12-18T04:55:19.986Z,19.76
2022-12-18T04:56:24.189Z,19.75
2022-12-18T04:57:28.400Z,19.73
2022-12-18T04:58:32.638Z,19.76
2022-12-18T04:59:36.890Z,19.78
2022-12-18T05:00:41.100Z,19.79
2022-12-18T05:01:45.452Z,19.84
2022-12-18T05:02:50.223Z,19.91
2022-12-18T05:03:55.121Z,20.01
2022-12-18T05:04:59.546Z,20.09
2022-12-18T05:06:03.760Z,20.15
2022-12-18T05:07:08.026Z,20.27
2022-12-18T05:08:12.362Z,20.41
2022-12-18T05:09:16.569Z,20.54
2022-12-18T05:10:22.791Z,20.62
2022-12-18T05:11:27.012Z,20.68
2022-12-18T05:12:31.253Z,20.76
2022-12-18T05:13:35.535Z,20.8
2022-12-18T05:14:40.675Z,20.84
2022-12-18T05:15:44.900Z,20.86
2022-12-18T05:16:49.238Z,20.9
2022-12-18T05:17:53.433Z,20.91
2022-12-18T05:18:57.661Z,20.92
2022-12-18T05:20:01.878Z,20.93
2022-12-18T05:21:06.139Z,20.93
2022-12-18T05:22:10.413Z,20.93
2022-12-18T05:23:14.720Z,20.92
2022-12-18T05:24:18.928Z,20.9
2022-12-18T05:25:23.178Z,20.9
2022-12-18T05:26:27.377Z,20.9
2022-12-18T05:27:31.612Z,20.9
2022-12-18T05:28:35.856Z,20.89
2022-12-18T05:29:40.094Z,20.9
2022-12-18T05:30:45.216Z,20.89
2022-12-18T05:31:49.553Z,20.91
2022-12-18T05:32:53.960Z,20.93
2022-12-18T05:33:59.054Z,20.99
2022-12-18T05:35:03.296Z,21.02
2022-12-18T05:36:07.549Z,21.05
2022-12-18T05:37:11.787Z,21.1
2022-12-18T05:38:16.029Z,21.16
2022-12-18T05:39:20.256Z,21.18
2022-12-18T05:40:24.474Z,21.19
2022-12-18T05:41:28.701Z,21.21
2022-12-18T05:42:32.924Z,21.23
2022-12-18T05:43:37.505Z,21.22
2022-12-18T05:44:43.245Z,21.21
2022-12-18T05:45:47.445Z,21.2
2022-12-18T05:46:51.788Z,21.2
2022-12-18T05:47:56.119Z,21.15
2022-12-18T05:49:02.296Z,21.13
2022-12-18T05:50:06.523Z,21.08
2022-12-18T05:51:10.769Z,21.05
2022-12-18T05:52:15.018Z,21.03
2022-12-18T05:53:19.245Z,21
2022-12-18T05:54:24.522Z,20.99
2022-12-18T05:55:28.737Z,20.94
2022-12-18T05:56:32.956Z,20.93
2022-12-18T05:57:37.351Z,20.91
2022-12-18T05:58:41.757Z,20.88
2022-12-18T05:59:45.981Z,20.86
2022-12-18T06:00:50.193Z,20.83
2022-12-18T06:01:54.516Z,20.81
2022-12-18T06:02:59.377Z,20.79
2022-12-18T06:04:04.069Z,20.77
2022-12-18T06:05:10.052Z,20.76
2022-12-18T06:06:14.285Z,20.73
2022-12-18T06:07:18.549Z,20.71
2022-12-18T06:08:22.772Z,20.7
2022-12-18T06:09:26.994Z,20.71
2022-12-18T06:10:31.203Z,20.71
2022-12-18T06:11:35.413Z,20.7
2022-12-18T06:12:39.646Z,20.69
2022-12-18T06:13:45.377Z,20.67
2022-12-18T06:14:49.661Z,20.67
2022-12-18T06:15:53.915Z,20.64
2022-12-18T06:16:59.394Z,20.63
2022-12-18T06:18:03.616Z,20.63
2022-12-18T06:19:07.832Z,20.59
2022-12-18T06:20:12.069Z,20.56
2022-12-18T06:21:16.299Z,20.57
2022-12-18T06:22:20.519Z,20.54
2022-12-18T06:23:24.760Z,20.53
2022-12-18T06:24:28.992Z,20.52
2022-12-18T06:25:33.482Z,20.51
2022-12-18T06:26:37.693Z,20.5
2022-12-18T06:27:42.221Z,20.51
2022-12-18T06:28:47.647Z,20.51
2022-12-18T06:29:51.918Z,20.49
2022-12-18T06:30:56.278Z,20.46
2022-12-18T06:32:00.616Z,20.48
2022-12-18T06:33:05.063Z,20.46
2022-12-18T06:34:09.294Z,20.47
2022-12-18T06:35:13.532Z,20.47
2022-12-18T06:36:17.776Z,20.42
2022-12-18T06:37:22.042Z,20.4
2022-12-18T06:38:26.275Z,20.38
2022-12-18T06:39:30.532Z,20.39
2022-12-18T06:40:34.769Z,20.41
2022-12-18T06:41:39.088Z,20.38
2022-12-18T06:42:45.156Z,20.38
2022-12-18T06:43:49.514Z,20.41
2022-12-18T06:44:56.815Z,20.44
2022-12-18T06:46:01.197Z,20.46
2022-12-18T06:47:05.570Z,20.45
2022-12-18T06:48:09.840Z,20.44
2022-12-18T06:49:14.089Z,20.46
2022-12-18T06:50:19.127Z,20.43
2022-12-18T06:51:23.369Z,20.43
2022-12-18T06:52:27.594Z,20.43
2022-12-18T06:53:31.945Z,20.42
2022-12-18T06:54:36.217Z,20.42
2022-12-18T06:55:40.456Z,20.41
2022-12-18T06:56:45.836Z,20.41
2022-12-18T06:57:50.048Z,20.44
2022-12-18T06:58:54.304Z,20.46
2022-12-18T06:59:58.520Z,20.44
2022-12-18T07:01:02.810Z,20.42
2022-12-18T07:02:07.334Z,20.4
2022-12-18T07:03:11.985Z,20.41
2022-12-18T07:04:16.715Z,20.41
2022-12-18T07:05:20.945Z,20.44
2022-12-18T07:06:25.171Z,20.42
2022-12-18T07:07:29.431Z,20.42
2022-12-18T07:08:33.738Z,20.42
2022-12-18T07:09:37.980Z,20.39
2022-12-18T07:10:46.445Z,20.41
2022-12-18T07:11:58.885Z,20.41
2022-12-18T07:13:03.665Z,20.41
2022-12-18T07:14:07.902Z,20.42
2022-12-18T07:15:12.167Z,20.39
2022-12-18T07:16:22.512Z,20.39
2022-12-18T07:17:29.557Z,20.39
2022-12-18T07:18:33.794Z,20.39
2022-12-18T07:19:38.012Z,20.33
2022-12-18T07:20:42.271Z,20.31
2022-12-18T07:21:46.482Z,20.29
2022-12-18T07:22:54.763Z,20.33
2022-12-18T07:24:00.334Z,20.32
2022-12-18T07:25:04.539Z,20.34
2022-12-18T07:26:08.802Z,20.34
2022-12-18T07:27:13.019Z,20.32
2022-12-18T07:28:17.828Z,20.34
2022-12-18T07:29:22.098Z,20.34
2022-12-18T07:30:26.352Z,20.34
2022-12-18T07:31:30.620Z,20.39
2022-12-18T07:32:35.551Z,20.42
2022-12-18T07:33:40.118Z,20.44
2022-12-18T07:34:45.698Z,20.43
2022-12-18T07:35:51.453Z,20.46
2022-12-18T07:36:55.670Z,20.43
2022-12-18T07:37:59.917Z,20.42
2022-12-18T07:39:04.161Z,20.44
2022-12-18T07:40:08.387Z,20.45
2022-12-18T07:41:12.610Z,20.45
2022-12-18T07:42:16.852Z,20.44
2022-12-18T07:43:21.044Z,20.45
2022-12-18T07:44:26.324Z,20.43
2022-12-18T07:45:30.603Z,20.4
2022-12-18T07:46:35.003Z,20.42
2022-12-18T07:47:39.233Z,20.43
2022-12-18T07:48:43.460Z,20.41
2022-12-18T07:49:53.821Z,20.41
2022-12-18T07:50:58.053Z,20.4
2022-12-18T07:52:02.277Z,20.43
2022-12-18T07:53:06.492Z,20.47
2022-12-18T07:54:10.700Z,20.45
2022-12-18T07:55:14.906Z,20.42
2022-12-18T07:56:26.945Z,20.45
2022-12-18T07:57:49.787Z,20.39
2022-12-18T07:59:03.453Z,20.37
2022-12-18T08:00:07.678Z,20.33
2022-12-18T08:01:11.982Z,20.32
2022-12-18T08:02:16.549Z,20.32
2022-12-18T08:03:21.430Z,20.3
2022-12-18T08:04:26.782Z,20.27
2022-12-18T08:05:31.275Z,20.26
2022-12-18T08:06:35.496Z,20.25
2022-12-18T08:07:39.717Z,20.26
2022-12-18T08:08:43.972Z,20.27
2022-12-18T08:09:48.198Z,20.27
2022-12-18T08:10:52.513Z,20.26
2022-12-18T08:11:56.743Z,20.26
2022-12-18T08:13:04.776Z,20.27
2022-12-18T08:14:09.262Z,20.28
2022-12-18T08:15:13.501Z,20.29
2022-12-18T08:16:17.846Z,20.32
2022-12-18T08:17:23.133Z,20.36
2022-12-18T08:18:27.352Z,20.4
2022-12-18T08:19:31.565Z,20.46
2022-12-18T08:20:35.920Z,20.49
2022-12-18T08:21:40.185Z,20.53
2022-12-18T08:22:44.571Z,20.57
2022-12-18T08:23:49.175Z,20.61
2022-12-18T08:24:55.206Z,20.62
2022-12-18T08:25:59.457Z,20.6
2022-12-18T08:27:28.222Z,20.58
2022-12-18T08:28:33.940Z,20.59
2022-12-18T08:29:38.171Z,20.58
2022-12-18T08:30:42.434Z,20.54
2022-12-18T08:31:47.391Z,20.53
2022-12-18T08:32:51.856Z,20.51
2022-12-18T08:33:56.138Z,20.53
2022-12-18T08:35:01.018Z,20.53
2022-12-18T08:36:05.233Z,20.5
2022-12-18T08:37:09.463Z,20.45
2022-12-18T08:38:13.677Z,20.45
2022-12-18T08:39:18.270Z,20.42
2022-12-18T08:40:22.500Z,20.47
2022-12-18T08:41:26.748Z,20.61
2022-12-18T08:42:31.086Z,20.57
2022-12-18T08:43:35.344Z,20.55
2022-12-18T08:44:40.469Z,20.56
2022-12-18T08:45:44.748Z,20.54
2022-12-18T08:46:49.212Z,20.51
2022-12-18T08:47:53.511Z,20.51
2022-12-18T08:48:57.718Z,20.49
2022-12-18T08:50:01.938Z,20.45
2022-12-18T08:51:06.176Z,20.48
2022-12-18T08:52:10.534Z,20.47
2022-12-18T08:53:14.780Z,20.45
2022-12-18T08:54:19.018Z,20.47
2022-12-18T08:55:23.244Z,20.47
2022-12-18T08:56:27.451Z,20.49
2022-12-18T08:57:31.750Z,20.47
2022-12-18T08:58:36.032Z,20.43
2022-12-18T08:59:40.413Z,20.43
2022-12-18T09:00:44.640Z,20.41
2022-12-18T09:01:48.985Z,20.41
2022-12-18T09:02:53.827Z,20.41
2022-12-18T09:03:58.591Z,20.4
2022-12-18T09:05:02.837Z,20.39
2022-12-18T09:06:07.065Z,20.43
2022-12-18T09:07:11.315Z,20.45
2022-12-18T09:08:15.510Z,20.44
2022-12-18T09:09:19.820Z,20.45
2022-12-18T09:10:24.046Z,20.46
2022-12-18T09:11:28.277Z,20.5
2022-12-18T09:12:33.313Z,20.47
2022-12-18T09:13:40.865Z,20.51
2022-12-18T09:14:46.145Z,20.52
2022-12-18T09:15:50.598Z,20.55
2022-12-18T09:16:54.870Z,20.6
2022-12-18T09:17:59.409Z,20.67
2022-12-18T09:19:03.622Z,20.68
2022-12-18T09:20:07.886Z,20.74
2022-12-18T09:21:12.117Z,20.79
2022-12-18T09:22:16.320Z,20.82
2022-12-18T09:23:20.658Z,20.83
2022-12-18T09:24:24.865Z,20.84
2022-12-18T09:25:29.129Z,20.85
2022-12-18T09:26:33.344Z,20.85
2022-12-18T09:27:37.558Z,20.86
2022-12-18T09:28:42.471Z,20.87
2022-12-18T09:29:47.341Z,20.84
2022-12-18T09:30:51.656Z,20.84
2022-12-18T09:31:56.046Z,20.8
2022-12-18T09:33:00.250Z,20.82
2022-12-18T09:34:04.555Z,20.82
2022-12-18T09:35:09.248Z,20.81
2022-12-18T09:36:13.517Z,20.79
2022-12-18T09:37:17.728Z,20.8
2022-12-18T09:38:21.945Z,20.77
2022-12-18T09:39:26.156Z,20.78
2022-12-18T09:40:30.384Z,20.9
2022-12-18T09:41:34.619Z,20.94
2022-12-18T09:42:38.834Z,20.87
2022-12-18T09:43:43.112Z,20.8
2022-12-18T09:44:47.371Z,20.75
2022-12-18T09:45:51.779Z,20.71
2022-12-18T09:46:56.184Z,20.68
2022-12-18T09:48:00.394Z,20.67
2022-12-18T09:49:05.084Z,20.71
2022-12-18T09:50:12.866Z,20.7
2022-12-18T09:51:20.853Z,20.68
2022-12-18T09:52:25.113Z,20.66
2022-12-18T09:53:29.324Z,20.63
2022-12-18T09:54:33.541Z,20.63
2022-12-18T09:55:37.813Z,20.64
2022-12-18T09:56:42.041Z,20.63
2022-12-18T09:57:46.263Z,20.66
2022-12-18T09:58:50.493Z,20.67
2022-12-18T09:59:54.736Z,20.68
2022-12-18T10:00:58.963Z,20.71
2022-12-18T10:02:03.251Z,20.73
2022-12-18T10:03:08.063Z,20.74
2022-12-18T10:04:13.044Z,20.74
2022-12-18T10:05:17.450Z,20.76
2022-12-18T10:06:23.957Z,20.76
2022-12-18T10:07:28.237Z,20.77
2022-12-18T10:08:32.481Z,20.77
2022-12-18T10:09:36.744Z,20.79
2022-12-18T10:10:40.960Z,20.84
2022-12-18T10:11:45.191Z,20.84
2022-12-18T10:12:49.419Z,20.85
2022-12-18T10:13:53.629Z,20.89
2022-12-18T10:14:57.858Z,20.88
2022-12-18T10:16:02.231Z,20.9
2022-12-18T10:17:06.678Z,20.88
2022-12-18T10:18:10.911Z,20.86
2022-12-18T10:19:22.607Z,20.85
2022-12-18T10:20:26.832Z,20.85
2022-12-18T10:21:31.051Z,20.85
2022-12-18T10:22:35.300Z,20.85
2022-12-18T10:23:42.449Z,20.82
2022-12-18T10:24:51.725Z,20.8
2022-12-18T10:25:55.939Z,20.78
2022-12-18T10:27:00.156Z,20.78
2022-12-18T10:28:04.405Z,20.78
2022-12-18T10:29:09.160Z,20.77
2022-12-18T10:30:13.390Z,20.74
2022-12-18T10:31:17.672Z,20.71
2022-12-18T10:32:22.126Z,20.69
2022-12-18T10:33:26.397Z,20.68
2022-12-18T10:34:30.634Z,20.66
2022-12-18T10:35:34.910Z,20.65
2022-12-18T10:36:39.149Z,20.64
2022-12-18T10:37:43.401Z,20.62
2022-12-18T10:38:48.357Z,20.61
2022-12-18T10:39:52.604Z,20.61
2022-12-18T10:40:56.830Z,20.59
2022-12-18T10:42:01.060Z,20.57
2022-12-18T10:43:05.271Z,20.57
2022-12-18T10:44:09.496Z,20.57
2022-12-18T10:45:13.757Z,20.55
2022-12-18T10:46:20.472Z,20.54
2022-12-18T10:47:24.876Z,20.55
2022-12-18T10:48:29.233Z,20.54
2022-12-18T10:49:33.461Z,20.54
2022-12-18T10:52:16.583Z,20.55
2022-12-18T10:53:21.200Z,20.56
2022-12-18T10:54:26.000Z,20.57
2022-12-18T10:55:30.271Z,20.59
2022-12-18T10:56:34.526Z,20.61
2022-12-18T10:57:38.775Z,20.62
2022-12-18T10:58:43.472Z,20.65
2022-12-18T10:59:49.141Z,20.67
2022-12-18T11:00:53.364Z,20.67
2022-12-18T11:01:57.749Z,20.67
2022-12-18T11:03:02.729Z,20.68
2022-12-18T11:04:07.525Z,20.67
2022-12-18T11:05:12.458Z,20.66
2022-12-18T11:06:18.906Z,20.65
2022-12-18T11:07:23.133Z,20.65
2022-12-18T11:08:27.406Z,20.63
2022-12-18T11:09:31.645Z,20.62
2022-12-18T11:10:35.873Z,20.6
2022-12-18T11:11:40.153Z,20.61
2022-12-18T11:12:44.397Z,20.59
2022-12-18T11:13:48.632Z,20.58
2022-12-18T11:14:52.865Z,20.56
2022-12-18T11:15:57.165Z,20.55
2022-12-18T11:18:35.771Z,20.54
2022-12-18T11:19:40.513Z,20.54
2022-12-18T11:20:44.734Z,20.52
2022-12-18T11:21:48.951Z,20.52
2022-12-18T11:22:53.210Z,20.5
2022-12-18T11:23:57.432Z,20.5
2022-12-18T11:25:30.604Z,20.5
2022-12-18T11:26:38.881Z,20.51
2022-12-18T11:27:44.333Z,20.51
2022-12-18T11:28:48.602Z,20.49
2022-12-18T11:29:52.800Z,20.47
2022-12-18T11:30:57.071Z,20.45
2022-12-18T11:32:01.514Z,20.42
2022-12-18T11:33:05.715Z,20.41
2022-12-18T11:34:28.440Z,20.39
2022-12-18T11:35:33.978Z,20.41
2022-12-18T11:36:39.682Z,20.42
2022-12-18T11:37:43.912Z,20.42
2022-12-18T11:38:48.192Z,20.44
2022-12-18T11:39:52.441Z,20.46
2022-12-18T11:40:56.700Z,20.49
2022-12-18T11:42:00.936Z,20.52
2022-12-18T11:43:05.142Z,20.61
2022-12-18T11:44:09.695Z,20.71
2022-12-18T11:45:14.040Z,20.77
2022-12-18T11:46:20.091Z,20.79
2022-12-18T11:47:25.158Z,20.84
2022-12-18T11:48:30.402Z,20.84
2022-12-18T11:49:34.606Z,20.82
2022-12-18T11:50:38.845Z,20.82
2022-12-18T11:51:43.072Z,20.79
2022-12-18T11:52:50.390Z,20.8
2022-12-18T11:54:08.164Z,20.77
2022-12-18T11:55:12.465Z,20.77
2022-12-18T11:56:18.936Z,20.77
2022-12-18T11:57:23.168Z,20.76
2022-12-18T11:58:39.453Z,20.75
2022-12-18T11:59:44.577Z,20.73
2022-12-18T12:00:48.816Z,20.71
2022-12-18T12:01:53.128Z,20.7
2022-12-18T12:02:57.816Z,20.69
2022-12-18T12:04:02.435Z,20.68
2022-12-18T12:05:06.959Z,20.67
2022-12-18T12:06:11.198Z,20.71
2022-12-18T12:07:15.413Z,20.72
2022-12-18T12:08:21.102Z,20.72
2022-12-18T12:09:25.319Z,20.71
2022-12-18T12:10:29.535Z,20.69
2022-12-18T12:11:33.766Z,20.7
2022-12-18T12:12:37.987Z,20.68
2022-12-18T12:13:50.368Z,20.66
2022-12-18T12:14:54.592Z,20.66
2022-12-18T12:16:01.295Z,20.66
2022-12-18T12:17:05.664Z,20.62
2022-12-18T12:18:11.566Z,20.61
2022-12-18T12:19:15.964Z,20.6
2022-12-18T12:20:20.176Z,20.61
2022-12-18T12:21:24.411Z,20.61
2022-12-18T12:22:29.749Z,20.58
2022-12-18T12:23:33.944Z,20.58
2022-12-18T12:24:38.223Z,20.6
2022-12-18T12:25:42.527Z,20.58
2022-12-18T12:26:46.752Z,20.59
2022-12-18T12:27:51.252Z,20.56
2022-12-18T12:28:55.492Z,20.55
2022-12-18T12:29:59.795Z,20.53
2022-12-18T12:31:04.071Z,20.55
2022-12-18T12:32:08.649Z,20.57
2022-12-18T12:33:12.886Z,20.57
2022-12-18T12:34:17.127Z,20.56
2022-12-18T12:35:21.335Z,20.55
2022-12-18T12:36:26.522Z,20.53
2022-12-18T12:37:30.734Z,20.52
2022-12-18T12:38:34.940Z,20.5
2022-12-18T12:39:39.147Z,20.5
2022-12-18T12:40:55.128Z,20.51
2022-12-18T12:42:06.874Z,20.52
2022-12-18T12:43:11.116Z,20.49
2022-12-18T12:44:15.921Z,20.48
2022-12-18T12:45:21.029Z,20.49
2022-12-18T12:46:25.856Z,20.51
2022-12-18T12:47:30.789Z,20.49
2022-12-18T12:48:36.715Z,20.49
2022-12-18T12:49:42.367Z,20.53
2022-12-18T12:50:49.167Z,20.52
2022-12-18T12:51:53.802Z,20.55
2022-12-18T12:53:00.597Z,20.58
2022-12-18T12:54:06.036Z,20.57
2022-12-18T12:55:15.388Z,20.58
2022-12-18T12:56:23.661Z,20.61
2022-12-18T12:57:28.154Z,20.64
2022-12-18T12:58:32.660Z,20.62
2022-12-18T12:59:37.232Z,20.63
2022-12-18T13:00:42.059Z,20.64
2022-12-18T13:01:46.868Z,20.69
2022-12-18T13:02:51.934Z,20.7
2022-12-18T13:03:56.286Z,20.75
2022-12-18T13:05:01.124Z,20.77
2022-12-18T13:06:05.782Z,20.78
2022-12-18T13:07:12.875Z,20.79
2022-12-18T13:08:17.689Z,20.79
2022-12-18T13:09:26.165Z,20.79
2022-12-18T13:10:33.084Z,20.82
2022-12-18T13:11:37.768Z,20.82
2022-12-18T13:12:42.427Z,20.83
2022-12-18T13:13:49.265Z,20.84
2022-12-18T13:14:55.198Z,20.85
2022-12-18T13:15:59.453Z,20.85
2022-12-18T13:17:04.655Z,20.86
2022-12-18T13:18:09.491Z,20.89
2022-12-18T13:19:14.629Z,20.91
2022-12-18T13:20:19.640Z,20.93
2022-12-18T13:21:25.112Z,20.94
2022-12-18T13:22:29.453Z,20.97
2022-12-18T13:23:33.976Z,20.94
2022-12-18T13:24:38.250Z,20.93
2022-12-18T13:25:42.727Z,20.96
2022-12-18T13:26:47.153Z,20.94
2022-12-18T13:27:51.449Z,20.94
2022-12-18T13:28:59.053Z,20.92
2022-12-18T13:30:03.278Z,20.93
2022-12-18T13:31:07.554Z,20.93
2022-12-18T13:32:15.865Z,20.9
2022-12-18T13:33:25.241Z,20.87
2022-12-18T13:34:30.115Z,20.82
2022-12-18T13:35:37.206Z,20.82
2022-12-18T13:36:42.393Z,20.79
2022-12-18T13:37:46.999Z,20.84
2022-12-18T13:38:51.676Z,20.84
2022-12-18T13:39:56.096Z,20.85
2022-12-18T13:41:00.505Z,20.85
2022-12-18T13:42:05.062Z,20.85
2022-12-18T13:43:09.657Z,20.86
2022-12-18T13:44:15.196Z,20.85
2022-12-18T13:45:19.971Z,20.88
2022-12-18T13:46:25.038Z,20.92
2022-12-18T13:47:29.600Z,20.97
2022-12-18T13:48:34.160Z,20.92
2022-12-18T13:49:38.602Z,20.98
2022-12-18T13:50:42.833Z,21
2022-12-18T13:51:47.054Z,21.01
2022-12-18T13:52:53.029Z,20.98
2022-12-18T13:53:57.319Z,20.99
2022-12-18T13:55:02.031Z,20.99
2022-12-18T13:56:06.832Z,20.97
2022-12-18T13:57:11.817Z,20.98
2022-12-18T13:58:22.921Z,20.98
2022-12-18T13:59:27.289Z,20.98
2022-12-18T14:00:31.868Z,20.93
2022-12-18T14:01:36.288Z,20.93